createdAt,value
2019-03-13T20:01:59.536Z,96962.46
2019-03-13T20:04:30.500Z,96965.05
2019-03-13T20:06:57.675Z,96971.73
2019-03-13T20:09:25.878Z,96977.56
2019-03-13T20:11:54.100Z,96992.94
2019-03-13T20:14:22.653Z,97003.11
2019-03-13T20:16:50.870Z,96995.27
2019-03-13T20:19:19.411Z,97008.55
2019-03-13T20:21:47.632Z,97003.20
2019-03-13T20:24:15.843Z,97015.98
2019-03-13T20:26:44.053Z,97015.85
2019-03-13T20:29:12.612Z,97012.14
2019-03-13T20:31:40.830Z,97013.86
2019-03-13T20:34:09.034Z,97018.33
2019-03-13T20:36:37.254Z,97004.23
2019-03-13T20:39:05.816Z,97034.11
2019-03-13T20:41:34.043Z,97012.20
2019-03-13T20:44:02.239Z,97019.91
2019-03-13T20:46:30.461Z,97017.53
2019-03-13T20:48:58.673Z,97023.28
2019-03-13T20:51:26.884Z,97038.34
2019-03-13T20:53:55.166Z,97025.75
2019-03-13T20:56:23.381Z,97030.79
2019-03-13T20:58:51.578Z,97038.36
2019-03-13T21:01:20.096Z,97049.08
2019-03-13T21:03:48.303Z,97050.06
2019-03-13T21:06:16.505Z,97052.13
2019-03-13T21:08:45.006Z,97056.07
2019-03-13T21:11:13.511Z,97057.46
2019-03-13T21:13:41.991Z,97062.12
2019-03-13T21:16:13.091Z,97059.93
2019-03-13T21:18:41.311Z,97043.14
2019-03-13T21:21:09.516Z,97060.47
2019-03-13T21:23:37.723Z,97059.66
2019-03-13T21:26:06.240Z,97066.10
2019-03-13T21:28:34.453Z,97073.08
2019-03-13T21:31:04.169Z,97072.53
2019-03-13T21:33:32.389Z,97067.32
2019-03-13T21:36:00.621Z,97076.90
2019-03-13T21:38:28.808Z,97086.23
2019-03-13T21:40:57.003Z,97080.03
2019-03-13T21:43:25.246Z,97078.95
2019-03-13T21:45:53.445Z,97083.62
2019-03-13T21:48:21.949Z,97092.17
2019-03-13T21:50:50.626Z,97094.92
2019-03-13T21:53:19.240Z,97099.09
2019-03-13T21:55:47.445Z,97109.28
2019-03-13T21:58:15.996Z,97098.55
2019-03-13T22:00:44.246Z,97109.83
2019-03-13T22:03:12.561Z,97104.60
2019-03-13T22:05:40.755Z,97117.81
2019-03-13T22:08:09.159Z,97126.27
2019-03-13T22:10:37.754Z,97116.48
2019-03-13T22:13:06.456Z,97127.44
2019-03-13T22:15:34.640Z,97125.83
2019-03-13T22:18:02.853Z,97131.89
2019-03-13T22:20:31.064Z,97123.91
2019-03-13T22:22:59.571Z,97146.44
2019-03-13T22:25:28.068Z,97145.66
2019-03-13T22:27:56.539Z,97147.84
2019-03-13T22:30:28.656Z,97147.30
2019-03-13T22:32:55.309Z,97139.88
2019-03-13T22:35:23.514Z,97148.13
2019-03-13T22:37:51.710Z,97153.08
2019-03-13T22:40:19.983Z,97157.80
2019-03-13T22:42:48.185Z,97156.15
2019-03-13T22:45:18.700Z,97164.92
2019-03-13T22:47:46.993Z,97155.05
2019-03-13T22:50:18.444Z,97155.55
2019-03-13T22:52:46.643Z,97165.74
2019-03-13T22:55:14.868Z,97177.34
2019-03-13T22:57:43.166Z,97176.79
2019-03-13T23:00:36.197Z,97190.55
2019-03-13T23:03:04.750Z,97181.47
2019-03-13T23:05:32.951Z,97188.63
2019-03-13T23:08:01.150Z,97194.95
2019-03-13T23:10:32.942Z,97190.86
2019-03-13T23:13:01.167Z,97181.51
2019-03-13T23:15:29.354Z,97188.81
2019-03-13T23:17:57.892Z,97191.38
2019-03-13T23:20:26.092Z,97205.44
2019-03-13T23:22:54.289Z,97207.33
2019-03-13T23:25:22.482Z,97208.70
2019-03-13T23:27:50.682Z,97213.15
2019-03-13T23:30:19.172Z,97214.52
2019-03-13T23:32:47.374Z,97214.09
2019-03-13T23:35:15.574Z,97212.52
2019-03-13T23:37:43.775Z,97218.06
2019-03-13T23:40:12.012Z,97230.21
2019-03-13T23:42:40.178Z,97234.06
2019-03-13T23:45:09.636Z,97234.06
2019-03-13T23:47:37.907Z,97225.80
2019-03-13T23:50:11.331Z,97232.13
2019-03-13T23:52:39.536Z,97234.92
2019-03-13T23:55:08.275Z,97240.42
2019-03-13T23:57:36.471Z,97251.94
